Time;durP1;ratioP1;P1;durP2;ratioP2;P2;SDS_P1;SDS_P2;PMS_P1;PMS_P2;Temp;Humidity;BMP_temperature;BMP_pressure;BME280_temperature;BME280_humidity;BME280_pressure;Samples;Min_cycle;Max_cycle;Signal;HPM_P1;HPM_P2
2024/03/19 00:02:34;;;;;;;12.45;7.65;;;11.20;99.90;;;;;;5114208;28;20114;-91
2024/03/19 00:04:59;;;;;;;13.68;8.55;;;12.00;99.90;;;;;;5092509;28;20427;-91
2024/03/19 00:07:25;;;;;;;15.43;8.52;;;11.20;99.90;;;;;;5073169;28;20028;-91
2024/03/19 00:09:51;;;;;;;18.38;8.95;;;11.20;99.90;;;;;;5073375;28;20107;-92
2024/03/19 00:12:17;;;;;;;12.57;7.97;;;11.20;99.90;;;;;;5086545;28;20028;-92
2024/03/19 00:14:43;;;;;;;14.30;8.68;;;11.30;99.90;;;;;;5092808;28;20020;-91
2024/03/19 00:17:09;;;;;;;19.30;9.63;;;11.30;99.90;;;;;;5092850;28;20035;-91
2024/03/19 00:19:35;;;;;;;15.02;8.63;;;11.60;99.90;;;;;;5089942;28;20110;-93
2024/03/19 00:22:00;;;;;;;22.48;10.18;;;11.20;99.90;;;;;;5091706;28;20684;-92
2024/03/19 00:24:26;;;;;;;15.63;9.70;;;11.20;99.90;;;;;;5091351;28;20035;-93
2024/03/19 00:26:56;;;;;;;15.57;10.10;;;11.20;99.90;;;;;;5092744;28;20051;-92
2024/03/19 00:29:21;;;;;;;18.93;11.43;;;12.30;99.90;;;;;;5093840;28;20027;-91
2024/03/19 00:31:47;;;;;;;20.35;10.02;;;12.20;99.90;;;;;;5107459;28;20059;-92
2024/03/19 00:34:25;;;;;;;17.35;10.63;;;11.30;99.90;;;;;;5108640;28;20016;-93
2024/03/19 00:36:50;;;;;;;18.65;9.93;;;11.30;99.90;;;;;;5115316;28;20084;-92
2024/03/19 00:39:16;;;;;;;11.93;9.35;;;11.50;99.90;;;;;;5096664;28;20504;-92
2024/03/19 00:41:42;;;;;;;12.93;8.45;;;11.30;99.90;;;;;;5091176;28;20036;-93
2024/03/19 00:44:08;;;;;;;18.45;8.15;;;11.30;99.90;;;;;;5077051;28;20021;-92
2024/03/19 00:46:41;;;;;;;13.85;7.90;;;11.30;99.90;;;;;;5087994;28;20032;-89
2024/03/19 00:49:07;;;;;;;16.27;7.75;;;11.30;99.90;;;;;;5072510;28;20031;-93
2024/03/19 00:51:32;;;;;;;15.48;7.45;;;11.90;99.90;;;;;;5073872;28;20020;-93
2024/03/19 00:53:58;;;;;;;15.25;6.70;;;11.30;99.90;;;;;;5077824;28;20384;-93
2024/03/19 00:56:23;;;;;;;13.05;6.90;;;12.10;99.90;;;;;;5083132;28;20044;-93
2024/03/19 00:58:51;;;;;;;13.95;6.90;;;11.40;99.90;;;;;;5087706;28;20020;-92
2024/03/19 01:01:17;;;;;;;8.13;5.80;;;11.40;99.90;;;;;;5093710;28;20032;-93
2024/03/19 01:03:42;;;;;;;8.43;5.80;;;11.40;99.90;;;;;;5089346;28;20036;-93
2024/03/19 01:06:09;;;;;;;8.25;5.28;;;11.40;99.90;;;;;;5092510;28;20040;-93
2024/03/19 01:08:34;;;;;;;12.25;5.50;;;11.40;99.90;;;;;;5105830;28;20425;-92
2024/03/19 01:11:01;;;;;;;11.77;6.10;;;11.40;99.90;;;;;;5115181;28;20068;-92
2024/03/19 01:13:27;;;;;;;13.32;6.40;;;11.40;99.90;;;;;;5117033;28;20028;-91
2024/03/19 01:15:52;;;;;;;9.65;5.88;;;11.40;99.90;;;;;;5110030;28;20035;-93
2024/03/19 01:18:18;;;;;;;12.73;5.68;;;11.40;99.90;;;;;;5117098;28;20035;-92
2024/03/19 01:20:44;;;;;;;10.45;6.13;;;11.40;99.90;;;;;;5115713;28;20470;-93
2024/03/19 01:23:09;;;;;;;7.28;5.53;;;11.40;99.90;;;;;;5104351;28;20076;-93
2024/03/19 01:25:36;;;;;;;10.20;6.07;;;11.40;99.90;;;;;;5133519;27;20015;-92
2024/03/19 01:28:01;;;;;;;8.02;5.55;;;11.40;99.90;;;;;;5143839;27;20085;-91
2024/03/19 01:30:27;;;;;;;11.02;6.22;;;11.40;99.90;;;;;;5119298;28;20059;-92
2024/03/19 01:32:53;;;;;;;11.18;5.50;;;11.50;99.90;;;;;;5104647;28;20031;-92
2024/03/19 01:35:19;;;;;;;10.90;6.20;;;11.40;99.90;;;;;;5106701;28;20032;-92
2024/03/19 01:37:44;;;;;;;9.52;6.97;;;11.40;99.90;;;;;;5100217;28;20031;-91
2024/03/19 01:40:10;;;;;;;8.82;6.97;;;11.40;99.90;;;;;;5116051;28;20112;-92
2024/03/19 01:42:36;;;;;;;9.52;7.05;;;11.40;99.90;;;;;;5116387;28;20039;-92
2024/03/19 01:45:09;;;;;;;12.40;7.60;;;12.00;99.90;;;;;;5109846;28;20065;-91
2024/03/19 01:47:35;;;;;;;17.23;8.05;;;11.50;99.90;;;;;;5115647;28;20478;-92
2024/03/19 01:50:06;;;;;;;14.40;8.60;;;11.50;99.90;;;;;;5109406;28;20064;-91
2024/03/19 01:52:44;;;;;;;9.77;7.70;;;11.50;99.90;;;;;;5117163;28;20019;-89
2024/03/19 01:55:11;;;;;;;16.15;9.15;;;11.50;99.90;;;;;;5130586;28;20042;-90
2024/03/19 01:57:37;;;;;;;16.85;8.68;;;11.50;99.90;;;;;;5128453;28;20435;-90
2024/03/19 02:00:07;;;;;;;17.20;8.70;;;11.50;99.90;;;;;;5097893;28;20025;-91
2024/03/19 02:02:37;;;;;;;17.13;8.23;;;11.50;99.90;;;;;;5096553;28;20035;-91
2024/03/19 02:05:04;;;;;;;14.88;9.00;;;11.50;99.90;;;;;;5096361;28;20122;-91
2024/03/19 02:07:31;;;;;;;10.13;8.02;;;11.50;99.90;;;;;;5101989;28;20115;-90
2024/03/19 02:09:56;;;;;;;17.92;8.75;;;11.50;99.90;;;;;;5111030;28;20020;-90
2024/03/19 02:12:26;;;;;;;15.73;9.00;;;11.50;99.90;;;;;;5115114;28;20047;-91
2024/03/19 02:14:53;;;;;;;21.80;8.20;;;11.50;99.90;;;;;;5102176;28;20126;-91
2024/03/19 02:17:19;;;;;;;13.02;8.07;;;11.90;99.90;;;;;;5114658;28;20273;-91
2024/03/19 02:19:45;;;;;;;11.90;7.05;;;11.50;99.90;;;;;;5115240;28;20028;-91
2024/03/19 02:22:11;;;;;;;12.73;7.53;;;11.60;99.90;;;;;;5129856;28;20053;-92
2024/03/19 02:24:41;;;;;;;11.63;7.93;;;11.50;99.90;;;;;;5114065;28;20120;-90
2024/03/19 02:27:07;;;;;;;15.80;7.53;;;11.60;99.90;;;;;;5117089;28;20043;-92
2024/03/19 02:29:33;;;;;;;9.98;7.72;;;11.60;99.90;;;;;;5112770;28;20463;-91
2024/03/19 02:31:59;;;;;;;11.93;7.47;;;11.80;99.90;;;;;;5104821;28;20058;-93
2024/03/19 02:34:25;;;;;;;10.45;7.13;;;11.60;99.90;;;;;;5113552;28;20099;-93
2024/03/19 02:36:51;;;;;;;11.07;7.53;;;11.60;99.90;;;;;;5095766;28;20434;-92
2024/03/19 02:39:16;;;;;;;9.77;7.35;;;11.70;99.90;;;;;;5103089;28;20058;-91
2024/03/19 02:41:42;;;;;;;9.13;6.60;;;11.60;99.90;;;;;;5115713;28;20028;-93
2024/03/19 02:44:07;;;;;;;11.05;6.88;;;11.60;99.90;;;;;;5116147;28;20038;-93
2024/03/19 02:46:33;;;;;;;11.02;6.28;;;11.60;99.90;;;;;;5106679;28;20047;-92
2024/03/19 02:48:59;;;;;;;12.32;6.63;;;11.60;99.90;;;;;;5115089;28;20047;-92
2024/03/19 02:51:25;;;;;;;13.95;6.60;;;11.60;99.90;;;;;;5114181;28;20035;-91
2024/03/19 02:53:51;;;;;;;10.35;6.45;;;11.60;99.90;;;;;;5114822;28;20019;-91
2024/03/19 02:56:16;;;;;;;8.68;6.03;;;11.60;99.90;;;;;;5114130;28;20032;-91
2024/03/19 02:58:42;;;;;;;7.35;5.78;;;11.70;99.90;;;;;;5124023;28;20033;-91
2024/03/19 03:01:08;;;;;;;13.90;6.53;;;11.60;99.90;;;;;;5119550;28;20055;-92
2024/03/19 03:03:34;;;;;;;15.90;6.53;;;11.70;99.90;;;;;;5116198;28;20035;-91
2024/03/19 03:06:00;;;;;;;11.60;5.68;;;11.60;99.90;;;;;;5114834;28;20044;-92
2024/03/19 03:08:26;;;;;;;9.05;4.45;;;11.60;99.90;;;;;;5114059;28;20080;-92
2024/03/19 03:10:52;;;;;;;11.63;4.93;;;11.60;99.90;;;;;;5113051;28;20380;-91
2024/03/19 03:13:17;;;;;;;8.50;3.67;;;11.60;99.90;;;;;;5120152;28;20027;-91
2024/03/19 03:15:43;;;;;;;8.02;4.32;;;11.70;99.90;;;;;;5133905;28;20015;-90
2024/03/19 03:18:10;;;;;;;8.75;4.47;;;11.60;99.90;;;;;;5121538;28;20035;-91
2024/03/19 03:20:36;;;;;;;9.18;4.55;;;11.70;99.90;;;;;;5115892;28;20035;-93
2024/03/19 03:23:02;;;;;;;9.75;5.28;;;11.60;99.90;;;;;;5096934;28;20067;-92
2024/03/19 03:25:29;;;;;;;8.75;4.57;;;11.60;99.90;;;;;;5114617;28;20054;-92
2024/03/19 03:27:54;;;;;;;10.93;6.35;;;11.60;99.90;;;;;;5114650;28;20383;-92
2024/03/19 03:30:21;;;;;;;14.25;5.50;;;11.60;99.90;;;;;;5114703;28;20131;-93
2024/03/19 03:32:47;;;;;;;12.40;6.18;;;11.60;99.90;;;;;;5112983;28;20034;-92
2024/03/19 03:35:15;;;;;;;9.35;5.15;;;11.60;99.90;;;;;;5094788;28;20356;-92
2024/03/19 03:37:41;;;;;;;9.13;5.07;;;12.10;99.90;;;;;;5094633;28;20024;-93
2024/03/19 03:40:23;;;;;;;7.82;5.45;;;12.20;99.90;;;;;;5094211;28;20034;-92
2024/03/19 03:42:49;;;;;;;9.43;4.95;;;11.60;99.90;;;;;;5094482;28;20039;-93
2024/03/19 03:45:19;;;;;;;8.88;4.95;;;11.60;99.90;;;;;;5094053;28;20046;-92
2024/03/19 03:47:45;;;;;;;10.93;6.00;;;11.60;99.90;;;;;;5094229;28;20035;-92
2024/03/19 03:50:13;;;;;;;10.10;5.55;;;11.60;99.90;;;;;;5095893;28;20016;-91
2024/03/19 03:52:39;;;;;;;11.63;6.13;;;11.60;99.90;;;;;;5110145;28;20028;-91
2024/03/19 03:55:06;;;;;;;14.43;6.28;;;11.70;99.90;;;;;;5113474;28;20030;-92
2024/03/19 03:57:36;;;;;;;10.25;6.15;;;11.60;99.90;;;;;;5114106;28;20481;-91
2024/03/19 04:00:08;;;;;;;13.23;6.30;;;12.10;99.90;;;;;;5126751;28;20083;-91
2024/03/19 04:02:42;;;;;;;9.70;6.40;;;11.60;99.90;;;;;;5119191;28;20039;-91
2024/03/19 04:05:08;;;;;;;16.45;8.15;;;11.60;99.90;;;;;;5113910;28;20047;-91
2024/03/19 04:07:41;;;;;;;12.63;7.38;;;11.60;99.90;;;;;;5108938;28;20034;-91
2024/03/19 04:10:07;;;;;;;14.75;7.70;;;11.60;99.90;;;;;;5129823;28;20035;-91
2024/03/19 04:12:33;;;;;;;12.07;8.10;;;11.60;99.90;;;;;;5121269;28;20028;-91
2024/03/19 04:14:58;;;;;;;12.57;7.50;;;11.60;99.90;;;;;;5114307;28;20027;-91
2024/03/19 04:17:24;;;;;;;11.32;7.55;;;11.60;99.90;;;;;;5112202;28;20122;-91
2024/03/19 04:19:50;;;;;;;13.05;7.45;;;11.60;99.90;;;;;;5112530;28;20027;-91
2024/03/19 04:22:16;;;;;;;12.73;7.30;;;11.60;99.90;;;;;;5113038;28;20051;-92
2024/03/19 04:24:42;;;;;;;14.15;7.53;;;12.10;99.90;;;;;;5113092;28;20031;-92
2024/03/19 04:27:08;;;;;;;13.98;7.50;;;11.60;99.90;;;;;;5113660;28;20027;-91
2024/03/19 04:29:33;;;;;;;12.18;7.47;;;11.70;99.90;;;;;;5114633;28;20035;-92
2024/03/19 04:31:59;;;;;;;9.50;7.13;;;12.20;99.90;;;;;;5114618;28;20024;-94
2024/03/19 04:34:24;;;;;;;14.35;7.38;;;11.50;99.90;;;;;;5123887;28;20047;-94
2024/03/19 04:36:50;;;;;;;13.10;7.03;;;11.70;99.90;;;;;;5128991;28;20028;-92
2024/03/19 04:39:17;;;;;;;17.00;7.90;;;11.60;99.90;;;;;;5113423;28;20032;-91
2024/03/19 04:41:43;;;;;;;10.82;6.35;;;11.60;99.90;;;;;;5105074;28;20032;-92
2024/03/19 04:44:09;;;;;;;10.40;7.47;;;11.50;99.90;;;;;;5093105;28;20114;-91
2024/03/19 04:46:35;;;;;;;13.02;6.82;;;11.60;99.90;;;;;;5098486;28;20058;-90
2024/03/19 04:49:01;;;;;;;9.13;6.47;;;11.60;99.90;;;;;;5113452;28;20063;-91
2024/03/19 04:51:27;;;;;;;13.98;6.90;;;11.40;99.90;;;;;;5112634;28;20467;-92
2024/03/19 04:53:53;;;;;;;12.88;6.70;;;12.20;99.90;;;;;;5112369;28;20047;-92
2024/03/19 04:56:22;;;;;;;7.68;6.53;;;12.00;99.90;;;;;;5113660;28;20058;-92
2024/03/19 04:58:48;;;;;;;10.45;6.65;;;11.60;99.90;;;;;;5115462;28;20020;-93
2024/03/19 05:01:15;;;;;;;9.95;7.30;;;11.50;99.90;;;;;;5115519;28;20046;-92
2024/03/19 05:03:42;;;;;;;15.70;7.22;;;11.00;99.90;;;;;;5128694;28;20027;-92
2024/03/19 05:06:08;;;;;;;11.35;7.63;;;11.50;99.90;;;;;;5122288;28;20043;-92
2024/03/19 05:08:43;;;;;;;9.63;6.65;;;11.50;99.90;;;;;;5113225;28;20503;-91
2024/03/19 05:11:09;;;;;;;12.95;7.65;;;11.60;99.90;;;;;;5114193;28;20032;-92
2024/03/19 05:13:35;;;;;;;11.60;7.43;;;11.60;99.90;;;;;;5113944;28;20034;-93
2024/03/19 05:16:01;;;;;;;18.35;8.95;;;12.30;99.90;;;;;;5111542;28;20031;-92
2024/03/19 05:18:27;;;;;;;10.85;6.88;;;11.60;99.90;;;;;;5112066;28;20809;-92
2024/03/19 05:20:52;;;;;;;14.25;7.65;;;11.60;99.90;;;;;;5112253;28;20038;-92
2024/03/19 05:23:18;;;;;;;16.00;7.97;;;11.60;99.90;;;;;;5112675;28;20089;-92
2024/03/19 05:25:44;;;;;;;15.52;7.60;;;12.30;99.90;;;;;;5105579;28;20031;-92
2024/03/19 05:28:10;;;;;;;11.57;7.82;;;11.60;99.90;;;;;;5114425;28;20074;-95
2024/03/19 05:30:36;;;;;;;16.20;8.38;;;11.60;99.90;;;;;;5116355;28;20024;-92
2024/03/19 05:33:02;;;;;;;14.70;8.40;;;12.20;99.90;;;;;;5112603;28;20020;-92
2024/03/19 05:35:28;;;;;;;10.60;7.53;;;11.60;99.90;;;;;;5112426;28;20032;-92
2024/03/19 05:37:53;;;;;;;12.45;8.23;;;11.60;99.90;;;;;;5113168;28;20049;-93
2024/03/19 05:40:20;;;;;;;11.40;7.30;;;11.60;99.90;;;;;;5113551;28;20415;-92
2024/03/19 05:42:45;;;;;;;13.57;8.45;;;11.60;99.90;;;;;;5107891;28;20517;-92
2024/03/19 05:45:11;;;;;;;10.95;8.18;;;11.60;99.90;;;;;;5113371;28;20066;-91
2024/03/19 05:47:37;;;;;;;14.27;7.97;;;11.60;99.90;;;;;;5112606;28;20119;-92
2024/03/19 05:50:03;;;;;;;10.23;7.25;;;11.60;99.90;;;;;;5112914;28;20387;-92
2024/03/19 05:52:29;;;;;;;15.43;7.22;;;11.60;99.90;;;;;;5108735;28;20081;-91
2024/03/19 05:54:55;;;;;;;14.32;7.75;;;11.60;99.90;;;;;;5125237;28;20020;-92
2024/03/19 05:57:21;;;;;;;9.82;7.28;;;11.60;99.90;;;;;;5132062;28;20095;-91
2024/03/19 05:59:47;;;;;;;12.32;7.10;;;11.60;99.90;;;;;;5130687;28;20102;-91
2024/03/19 06:02:13;;;;;;;11.40;7.20;;;11.90;99.90;;;;;;5122450;28;20042;-90
2024/03/19 06:04:39;;;;;;;11.13;8.20;;;11.60;99.90;;;;;;5130707;28;20004;-91
2024/03/19 06:07:10;;;;;;;14.07;6.80;;;11.60;99.90;;;;;;5123704;28;20487;-94
2024/03/19 06:09:41;;;;;;;12.30;7.50;;;11.60;99.90;;;;;;5123730;28;20061;-93
2024/03/19 06:12:12;;;;;;;12.27;7.00;;;11.60;99.90;;;;;;5117485;28;20047;-93
2024/03/19 06:14:37;;;;;;;11.68;6.15;;;11.60;99.90;;;;;;5116305;28;20024;-92
2024/03/19 06:17:03;;;;;;;13.40;7.10;;;11.60;99.90;;;;;;5117265;28;20053;-92
2024/03/19 06:19:29;;;;;;;11.43;6.68;;;12.60;99.90;;;;;;5117265;28;20024;-92
2024/03/19 06:21:54;;;;;;;14.38;7.55;;;11.60;99.90;;;;;;5116868;28;20493;-93
2024/03/19 06:24:20;;;;;;;15.00;7.38;;;11.60;99.90;;;;;;5116966;28;20522;-93
2024/03/19 06:26:45;;;;;;;9.15;5.65;;;11.60;99.90;;;;;;5113965;28;20034;-92
2024/03/19 06:29:11;;;;;;;10.50;5.97;;;11.50;99.90;;;;;;5106004;28;20456;-93
2024/03/19 06:31:37;;;;;;;11.27;5.97;;;11.60;99.90;;;;;;5113483;28;20035;-94
2024/03/19 06:34:03;;;;;;;7.15;5.78;;;11.60;99.90;;;;;;5115496;28;20020;-93
2024/03/19 06:36:29;;;;;;;15.25;5.50;;;11.60;99.90;;;;;;5116468;27;20039;-93
2024/03/19 06:38:55;;;;;;;7.80;5.38;;;11.60;99.90;;;;;;5120816;27;20531;-92
2024/03/19 06:41:21;;;;;;;8.10;5.47;;;11.80;99.90;;;;;;5115121;28;20131;-93
2024/03/19 06:43:46;;;;;;;10.85;5.70;;;11.70;99.90;;;;;;5115524;27;20027;-93
2024/03/19 06:46:12;;;;;;;11.27;5.63;;;11.70;99.90;;;;;;5117336;27;20483;-92
2024/03/19 06:48:38;;;;;;;7.75;5.00;;;12.20;99.90;;;;;;5111472;27;20023;-92
2024/03/19 06:51:05;;;;;;;11.70;5.93;;;11.60;99.90;;;;;;5112135;28;20028;-91
2024/03/19 06:53:31;;;;;;;11.65;4.88;;;11.60;99.90;;;;;;5120366;28;20043;-93
2024/03/19 06:55:56;;;;;;;6.93;5.38;;;11.60;99.90;;;;;;5104277;28;20024;-94
2024/03/19 06:58:22;;;;;;;11.00;5.47;;;11.60;99.90;;;;;;5115734;28;20024;-92
2024/03/19 07:00:51;;;;;;;10.40;5.63;;;11.70;99.90;;;;;;5129624;27;20362;-93
2024/03/19 07:03:20;;;;;;;13.77;5.35;;;11.60;99.90;;;;;;5110602;28;20040;-92
2024/03/19 07:05:46;;;;;;;11.57;6.20;;;11.60;99.90;;;;;;5116993;28;20048;-92
2024/03/19 07:08:12;;;;;;;6.63;4.68;;;11.60;99.90;;;;;;5114082;28;20074;-93
2024/03/19 07:10:38;;;;;;;9.90;5.10;;;11.80;99.90;;;;;;5107544;28;20493;-93
2024/03/19 07:13:04;;;;;;;5.78;4.28;;;11.70;99.90;;;;;;5116226;28;20424;-93
2024/03/19 07:15:30;;;;;;;11.13;4.18;;;11.70;99.90;;;;;;5131145;27;20042;-92
2024/03/19 07:17:56;;;;;;;7.13;4.40;;;11.70;99.90;;;;;;5099926;28;20383;-92
2024/03/19 07:20:24;;;;;;;8.32;4.68;;;11.90;99.90;;;;;;5104573;28;20028;-92
2024/03/19 07:22:50;;;;;;;11.80;4.72;;;11.70;99.90;;;;;;5114941;28;20092;-92
2024/03/19 07:25:16;;;;;;;7.28;4.10;;;11.70;99.90;;;;;;5115924;28;20020;-94
2024/03/19 07:27:43;;;;;;;10.60;4.57;;;11.80;99.90;;;;;;5115717;28;20534;-94
2024/03/19 07:30:14;;;;;;;9.35;4.22;;;11.80;99.90;;;;;;5116384;28;20026;-92
2024/03/19 07:32:40;;;;;;;10.40;4.50;;;11.80;99.90;;;;;;5110022;28;20050;-93
2024/03/19 07:35:10;;;;;;;9.90;4.55;;;12.80;99.90;;;;;;5114762;28;20038;-94
2024/03/19 07:37:36;;;;;;;5.93;4.20;;;11.80;99.90;;;;;;5102668;28;20038;-93
2024/03/19 07:40:10;;;;;;;8.48;3.78;;;11.90;99.90;;;;;;5095573;28;20451;-93
2024/03/19 07:42:42;;;;;;;18.92;4.18;;;11.90;99.90;;;;;;5095018;28;20036;-94
2024/03/19 07:45:08;;;;;;;10.85;4.28;;;11.90;99.90;;;;;;5098125;28;20024;-92
2024/03/19 07:47:35;;;;;;;8.45;4.18;;;12.00;99.90;;;;;;5097593;28;20070;-95
2024/03/19 07:50:01;;;;;;;9.55;4.40;;;12.80;99.90;;;;;;5115456;28;20027;-94
2024/03/19 07:52:27;;;;;;;5.60;4.13;;;12.00;99.90;;;;;;5114181;27;20110;-93
2024/03/19 07:54:53;;;;;;;6.63;4.07;;;12.00;99.90;;;;;;5111852;28;20569;-93
2024/03/19 07:57:19;;;;;;;9.25;3.80;;;12.00;99.90;;;;;;5113680;28;20405;-93
2024/03/19 07:59:44;;;;;;;7.38;4.85;;;12.10;99.90;;;;;;5113899;28;20043;-94
2024/03/19 08:02:10;;;;;;;8.13;4.30;;;12.10;99.90;;;;;;5122130;27;20091;-94
2024/03/19 08:04:35;;;;;;;9.82;4.60;;;12.10;99.90;;;;;;5128407;27;20031;-94
2024/03/19 08:07:01;;;;;;;11.23;4.85;;;12.10;99.90;;;;;;5121064;28;20038;-94
2024/03/19 08:09:27;;;;;;;13.38;6.22;;;12.10;99.90;;;;;;5119639;28;20026;-92
2024/03/19 08:11:53;;;;;;;11.75;5.32;;;12.10;99.90;;;;;;5113992;28;20046;-94
2024/03/19 08:14:19;;;;;;;9.02;5.70;;;12.10;99.90;;;;;;5116862;27;20024;-93
2024/03/19 08:16:44;;;;;;;7.45;5.97;;;12.10;99.90;;;;;;5116895;27;20031;-91
2024/03/19 08:19:11;;;;;;;9.15;5.50;;;12.20;99.90;;;;;;5110606;28;20478;-92
2024/03/19 08:21:37;;;;;;;8.88;5.82;;;12.10;99.90;;;;;;5118441;28;20114;-93
2024/03/19 08:24:03;;;;;;;16.65;6.32;;;12.10;99.90;;;;;;5132319;27;20050;-91
2024/03/19 08:26:29;;;;;;;11.93;6.15;;;12.10;99.90;;;;;;5135128;27;20053;-93
2024/03/19 08:28:54;;;;;;;23.67;6.03;;;12.10;99.90;;;;;;5136517;27;20023;-94
2024/03/19 08:31:20;;;;;;;12.57;5.82;;;12.10;99.90;;;;;;5145844;27;20071;-94
2024/03/19 08:33:46;;;;;;;11.07;5.70;;;12.20;99.90;;;;;;5130989;27;20024;-95
2024/03/19 08:36:11;;;;;;;10.48;6.18;;;12.20;99.90;;;;;;5138191;27;20015;-94
2024/03/19 08:38:37;;;;;;;11.07;6.38;;;13.30;99.90;;;;;;5134170;28;20055;-92
2024/03/19 08:41:07;;;;;;;12.98;5.72;;;12.20;99.90;;;;;;5124471;28;20030;-90
2024/03/19 08:43:32;;;;;;;10.98;5.97;;;12.20;99.90;;;;;;5114662;28;20040;-91
2024/03/19 08:45:58;;;;;;;10.20;5.90;;;12.20;99.90;;;;;;5115060;28;20541;-92
2024/03/19 08:48:24;;;;;;;11.10;6.43;;;12.20;99.90;;;;;;5115505;28;20019;-86
2024/03/19 08:50:49;;;;;;;14.88;5.57;;;12.20;99.90;;;;;;5111833;28;20034;-84
2024/03/19 08:53:15;;;;;;;24.08;6.32;;;12.20;99.90;;;;;;5113185;28;20020;-90
2024/03/19 08:55:42;;;;;;;11.98;6.07;;;12.20;99.90;;;;;;5112465;28;20483;-90
2024/03/19 08:58:08;;;;;;;11.23;6.13;;;12.20;99.90;;;;;;5113994;28;20030;-91
2024/03/19 09:00:34;;;;;;;9.68;5.60;;;12.70;99.90;;;;;;5107764;28;20064;-90
2024/03/19 09:03:01;;;;;;;11.63;6.38;;;12.20;99.90;;;;;;5105930;28;20132;-89
2024/03/19 09:05:27;;;;;;;10.68;6.38;;;12.80;99.90;;;;;;5110138;28;20074;-90
2024/03/19 09:07:53;;;;;;;8.10;5.90;;;12.30;99.90;;;;;;5110941;28;20116;-86
2024/03/19 09:10:18;;;;;;;9.70;6.00;;;12.20;99.90;;;;;;5113744;28;20036;-88
2024/03/19 09:12:44;;;;;;;12.25;7.03;;;12.30;99.90;;;;;;5110376;28;20536;-85
2024/03/19 09:15:13;;;;;;;10.23;6.80;;;12.90;99.90;;;;;;5105049;28;20047;-87
2024/03/19 09:17:39;;;;;;;12.82;5.43;;;12.30;99.90;;;;;;5108540;28;20027;-92
2024/03/19 09:20:06;;;;;;;9.52;6.07;;;12.30;99.90;;;;;;5111447;28;20059;-91
2024/03/19 09:22:32;;;;;;;7.68;5.40;;;12.40;99.90;;;;;;5111236;28;20065;-91
2024/03/19 09:24:59;;;;;;;12.48;6.05;;;12.40;99.90;;;;;;5110708;28;20538;-91
2024/03/19 09:27:25;;;;;;;11.57;5.93;;;12.40;99.90;;;;;;5107360;28;20036;-90
2024/03/19 09:29:51;;;;;;;15.52;6.28;;;12.50;99.90;;;;;;5111458;28;20031;-91
2024/03/19 09:32:16;;;;;;;11.18;6.20;;;12.50;99.90;;;;;;5117695;27;20020;-93
2024/03/19 09:34:43;;;;;;;10.13;5.80;;;12.60;99.90;;;;;;5122048;28;20028;-92
2024/03/19 09:37:09;;;;;;;8.85;5.65;;;12.60;99.90;;;;;;5114537;28;20404;-93
2024/03/19 09:39:34;;;;;;;9.88;5.50;;;12.60;99.90;;;;;;5109467;28;20187;-93
2024/03/19 09:42:22;;;;;;;11.85;5.15;;;12.70;99.90;;;;;;5116250;28;20047;-92
2024/03/19 09:44:49;;;;;;;9.68;5.15;;;12.70;99.90;;;;;;5116915;28;20077;-91
2024/03/19 09:47:16;;;;;;;12.73;5.80;;;12.80;99.90;;;;;;5116994;28;20106;-93
2024/03/19 09:49:45;;;;;;;12.15;5.68;;;12.80;99.90;;;;;;5117468;28;20463;-93
2024/03/19 09:52:13;;;;;;;7.43;4.60;;;12.90;99.90;;;;;;5118526;28;20075;-92
2024/03/19 09:54:39;;;;;;;13.32;5.53;;;12.90;99.90;;;;;;5132245;27;20008;-94
2024/03/19 09:57:13;;;;;;;7.50;4.75;;;12.90;99.90;;;;;;5138428;27;20030;-92
2024/03/19 09:59:39;;;;;;;13.32;5.90;;;13.00;99.90;;;;;;5117091;28;20032;-93
2024/03/19 10:02:20;;;;;;;8.57;4.65;;;13.50;99.90;;;;;;5107534;28;20085;-92
2024/03/19 10:04:48;;;;;;;13.40;5.13;;;13.10;99.90;;;;;;5095943;28;20195;-93
2024/03/19 10:07:19;;;;;;;13.07;3.78;;;14.10;99.90;;;;;;5097321;28;20028;-93
2024/03/19 10:09:47;;;;;;;9.70;3.58;;;13.20;99.90;;;;;;5098868;28;20046;-92
2024/03/19 10:12:14;;;;;;;8.95;3.40;;;13.30;99.90;;;;;;5131456;28;20031;-89
2024/03/19 10:14:40;;;;;;;12.32;3.75;;;13.50;99.90;;;;;;5121117;28;20024;-92
2024/03/19 10:17:12;;;;;;;9.60;3.75;;;13.30;99.90;;;;;;5117407;28;20036;-94
2024/03/19 10:19:39;;;;;;;9.48;3.17;;;13.40;99.90;;;;;;5114528;28;20031;-93
2024/03/19 10:22:11;;;;;;;5.70;3.22;;;13.50;99.90;;;;;;5061912;28;20585;-89
2024/03/19 10:24:36;;;;;;;10.10;3.25;;;14.70;99.90;;;;;;5115082;28;20039;-92
2024/03/19 10:27:26;;;;;;;12.27;3.50;;;13.60;99.90;;;;;;5130212;28;20019;-92
2024/03/19 10:29:51;;;;;;;14.02;3.47;;;14.60;99.90;;;;;;5117183;28;20036;-90
2024/03/19 10:32:17;;;;;;;12.32;3.15;;;14.80;99.90;;;;;;5117783;28;20035;-91
2024/03/19 10:34:44;;;;;;;10.20;3.33;;;14.70;99.90;;;;;;5120362;28;20011;-88
2024/03/19 10:37:09;;;;;;;9.05;2.90;;;14.90;99.90;;;;;;5113987;28;20038;-87
2024/03/19 10:39:36;;;;;;;10.25;3.60;;;13.90;99.90;;;;;;5114362;28;20028;-87
2024/03/19 10:42:20;;;;;;;12.88;3.30;;;13.50;99.90;;;;;;5096774;28;20044;-83
2024/03/19 10:44:45;;;;;;;12.90;2.95;;;14.90;99.90;;;;;;5113943;28;20518;-88
2024/03/19 10:47:17;;;;;;;11.18;2.85;;;14.10;99.90;;;;;;5115005;28;20103;-94
2024/03/19 10:50:15;;;;;;;13.73;4.07;;;14.10;99.90;;;;;;5112789;28;20035;-94
2024/03/19 10:52:59;;;;;;;6.72;2.53;;;14.10;99.90;;;;;;5118049;28;20113;-92
2024/03/19 10:55:54;;;;;;;5.97;2.92;;;15.00;99.90;;;;;;5115350;28;20032;-93
2024/03/19 11:00:56;;;;;;;7.65;2.35;;;14.10;99.90;;;;;;5097602;28;20075;-92
2024/03/19 11:03:33;;;;;;;13.75;3.20;;;14.40;99.90;;;;;;5093932;28;20387;-96
2024/03/19 11:06:22;;;;;;;7.28;3.30;;;15.50;99.90;;;;;;5094926;28;20032;-94
2024/03/19 11:09:17;;;;;;;12.85;3.53;;;14.30;99.90;;;;;;5100369;28;20111;-96
2024/03/19 11:12:04;;;;;;;8.95;3.40;;;14.90;99.90;;;;;;5091523;28;20033;-95
2024/03/19 11:14:31;;;;;;;6.60;2.92;;;15.00;99.90;;;;;;5106907;28;20013;-96
2024/03/19 11:17:16;;;;;;;8.48;3.42;;;14.60;99.90;;;;;;5116090;28;20020;-95
2024/03/19 11:19:42;;;;;;;12.70;3.17;;;14.50;99.90;;;;;;5101756;28;20028;-95
2024/03/19 11:22:08;;;;;;;7.38;3.20;;;15.70;99.90;;;;;;5128467;22;20101;-93
2024/03/19 11:24:38;;;;;;;5.10;3.00;;;14.50;99.90;;;;;;5097058;28;20132;-93
2024/03/19 11:27:07;;;;;;;6.20;3.13;;;14.80;99.90;;;;;;5101303;28;20099;-94
2024/03/19 11:29:46;;;;;;;12.05;3.70;;;14.60;99.90;;;;;;5104061;28;20108;-94
2024/03/19 11:32:40;;;;;;;10.68;2.97;;;14.60;99.90;;;;;;5104977;28;20028;-94
2024/03/19 11:35:42;;;;;;;6.53;2.80;;;14.30;99.90;;;;;;5097894;28;20088;-93
2024/03/19 11:38:15;;;;;;;10.57;3.80;;;14.40;99.90;;;;;;5106004;28;20020;-94
2024/03/19 11:40:42;;;;;;;8.93;3.90;;;14.60;99.90;;;;;;5111179;28;20371;-94
2024/03/19 11:43:13;;;;;;;16.08;4.03;;;14.50;99.90;;;;;;5118521;28;20032;-93
2024/03/19 11:45:40;;;;;;;8.93;3.38;;;15.70;99.90;;;;;;5107837;28;20429;-94
2024/03/19 11:48:28;;;;;;;11.75;3.35;;;14.40;99.90;;;;;;5105753;28;20024;-94
2024/03/19 11:50:58;;;;;;;6.85;3.08;;;14.50;99.90;;;;;;5109837;28;20030;-94
2024/03/19 11:53:24;;;;;;;9.45;3.60;;;14.80;99.90;;;;;;5112112;28;20031;-94
2024/03/19 11:56:16;;;;;;;9.57;3.97;;;15.50;99.90;;;;;;5104208;28;20040;-90
2024/03/19 11:58:43;;;;;;;6.43;3.40;;;14.90;99.90;;;;;;5096019;28;20017;-93
2024/03/19 12:01:24;;;;;;;10.25;4.00;;;15.00;99.90;;;;;;5110826;28;20036;-93
2024/03/19 12:03:50;;;;;;;9.20;3.90;;;15.90;99.90;;;;;;5093834;28;20044;-95
2024/03/19 12:06:16;;;;;;;12.10;4.25;;;14.50;99.90;;;;;;5107399;28;20098;-94
2024/03/19 12:09:02;;;;;;;8.00;4.10;;;15.50;99.90;;;;;;5102277;28;20043;-94
2024/03/19 12:11:28;;;;;;;8.43;3.55;;;14.80;99.90;;;;;;5078238;28;20012;-94
2024/03/19 12:13:53;;;;;;;9.13;4.00;;;15.10;99.90;;;;;;5099246;28;20039;-94
2024/03/19 12:16:40;;;;;;;14.38;4.20;;;15.70;99.90;;;;;;5100105;28;20026;-94
2024/03/19 12:19:05;;;;;;;8.77;3.22;;;14.90;99.90;;;;;;5095621;28;20066;-93
2024/03/19 12:21:56;;;;;;;9.10;3.10;;;16.10;99.90;;;;;;5094712;28;20535;-94
2024/03/19 12:24:25;;;;;;;12.75;2.90;;;15.00;99.90;;;;;;5084090;28;20048;-91
2024/03/19 12:27:10;;;;;;;9.27;2.95;;;15.00;99.90;;;;;;5077608;28;20127;-92
2024/03/19 12:29:35;;;;;;;5.85;2.63;;;15.10;99.90;;;;;;5094728;28;20032;-93
2024/03/19 12:32:36;;;;;;;7.50;3.35;;;15.20;99.90;;;;;;5092266;28;20035;-92
2024/03/19 12:35:21;;;;;;;;;;;15.10;99.90;;;;;;5107228;28;20043;-93
2024/03/19 12:37:47;;;;;;;11.65;3.30;;;15.10;99.90;;;;;;5105516;28;20366;-92
2024/03/19 12:40:34;;;;;;;9.30;2.80;;;16.30;99.90;;;;;;5094781;28;20028;-93
2024/03/19 12:42:59;;;;;;;10.80;3.63;;;15.00;99.90;;;;;;5095432;28;20081;-92
2024/03/19 12:45:49;;;;;;;6.07;3.00;;;15.10;99.90;;;;;;5093965;28;20024;-92
2024/03/19 12:48:15;;;;;;;8.10;4.10;;;15.00;99.90;;;;;;5094488;28;20260;-90
2024/03/19 12:50:40;;;;;;;5.63;2.80;;;15.60;99.90;;;;;;5093937;28;20379;-91